sensor_id;sensor_type;location;lat;lon;timestamp;P1;durP1;ratioP1;P2;durP2;ratioP2
57047;SDS011;42934;54.294;18.598;2023-03-13T08:49:53;38.60;;;17.05;;
57047;SDS011;42934;54.294;18.598;2023-03-13T08:52:25;37.00;;;15.95;;
57047;SDS011;42934;54.294;18.598;2023-03-13T08:54:54;35.90;;;16.40;;
57047;SDS011;42934;54.294;18.598;2023-03-13T08:57:23;41.15;;;16.50;;
57047;SDS011;42934;54.294;18.598;2023-03-13T08:59:52;39.28;;;16.95;;
57047;SDS011;42934;54.294;18.598;2023-03-13T09:02:21;40.63;;;18.17;;
57047;SDS011;42934;54.294;18.598;2023-03-13T09:04:51;42.28;;;17.80;;
57047;SDS011;42934;54.294;18.598;2023-03-13T09:07:22;41.35;;;18.33;;
57047;SDS011;42934;54.294;18.598;2023-03-13T09:09:51;38.47;;;17.02;;
57047;SDS011;42934;54.294;18.598;2023-03-13T09:12:21;40.05;;;18.23;;
57047;SDS011;42934;54.294;18.598;2023-03-13T09:14:57;43.97;;;19.33;;
57047;SDS011;42934;54.294;18.598;2023-03-13T09:17:26;39.30;;;18.08;;
57047;SDS011;42934;54.294;18.598;2023-03-13T09:19:57;42.08;;;18.45;;
57047;SDS011;42934;54.294;18.598;2023-03-13T09:22:27;43.03;;;16.92;;
57047;SDS011;42934;54.294;18.598;2023-03-13T09:24:56;42.35;;;18.80;;
57047;SDS011;42934;54.294;18.598;2023-03-13T09:27:25;44.58;;;19.15;;
57047;SDS011;42934;54.294;18.598;2023-03-13T09:29:54;41.45;;;18.65;;
57047;SDS011;42934;54.294;18.598;2023-03-13T09:32:24;45.30;;;19.80;;
57047;SDS011;42934;54.294;18.598;2023-03-13T09:34:53;48.20;;;18.33;;
57047;SDS011;42934;54.294;18.598;2023-03-13T09:37:26;46.78;;;20.65;;
57047;SDS011;42934;54.294;18.598;2023-03-13T09:42:29;29.92;;;15.48;;
57047;SDS011;42934;54.294;18.598;2023-03-13T09:45:11;42.60;;;19.35;;
57047;SDS011;42934;54.294;18.598;2023-03-13T09:47:45;46.42;;;20.25;;
57047;SDS011;42934;54.294;18.598;2023-03-13T09:50:20;49.28;;;20.52;;
57047;SDS011;42934;54.294;18.598;2023-03-13T09:52:58;48.47;;;20.30;;
57047;SDS011;42934;54.294;18.598;2023-03-13T09:55:33;42.17;;;20.05;;
57047;SDS011;42934;54.294;18.598;2023-03-13T09:58:07;43.10;;;20.25;;
57047;SDS011;42934;54.294;18.598;2023-03-13T10:00:42;43.60;;;19.80;;
57047;SDS011;42934;54.294;18.598;2023-03-13T10:03:17;42.22;;;20.15;;
57047;SDS011;42934;54.294;18.598;2023-03-13T10:05:51;43.15;;;18.95;;
57047;SDS011;42934;54.294;18.598;2023-03-13T10:08:24;42.55;;;19.88;;
57047;SDS011;42934;54.294;18.598;2023-03-13T10:10:57;41.83;;;18.70;;
57047;SDS011;42934;54.294;18.598;2023-03-13T10:13:33;39.67;;;19.48;;
57047;SDS011;42934;54.294;18.598;2023-03-13T10:16:08;43.53;;;20.55;;
57047;SDS011;42934;54.294;18.598;2023-03-13T10:18:39;37.45;;;19.50;;
57047;SDS011;42934;54.294;18.598;2023-03-13T10:21:15;39.60;;;19.67;;
57047;SDS011;42934;54.294;18.598;2023-03-13T10:23:49;38.20;;;18.13;;
57047;SDS011;42934;54.294;18.598;2023-03-13T10:26:24;43.05;;;21.52;;
57047;SDS011;42934;54.294;18.598;2023-03-13T10:29:00;41.90;;;18.98;;
57047;SDS011;42934;54.294;18.598;2023-03-13T10:31:43;44.35;;;18.48;;
57047;SDS011;42934;54.294;18.598;2023-03-13T10:34:20;36.65;;;19.10;;
57047;SDS011;42934;54.294;18.598;2023-03-13T10:36:53;38.00;;;17.95;;
57047;SDS011;42934;54.294;18.598;2023-03-13T10:39:27;39.42;;;19.20;;
57047;SDS011;42934;54.294;18.598;2023-03-13T10:41:58;38.08;;;19.20;;
57047;SDS011;42934;54.294;18.598;2023-03-13T10:44:37;36.15;;;18.35;;
57047;SDS011;42934;54.294;18.598;2023-03-13T10:47:08;36.92;;;18.35;;
57047;SDS011;42934;54.294;18.598;2023-03-13T10:49:45;36.60;;;18.20;;
57047;SDS011;42934;54.294;18.598;2023-03-13T10:52:27;38.45;;;18.10;;
57047;SDS011;42934;54.294;18.598;2023-03-13T10:55:01;40.22;;;19.27;;
57047;SDS011;42934;54.294;18.598;2023-03-13T10:57:32;39.33;;;19.30;;
57047;SDS011;42934;54.294;18.598;2023-03-13T11:00:04;40.88;;;19.50;;
57047;SDS011;42934;54.294;18.598;2023-03-13T11:02:55;40.22;;;19.92;;
57047;SDS011;42934;54.294;18.598;2023-03-13T11:05:29;40.30;;;20.10;;
57047;SDS011;42934;54.294;18.598;2023-03-13T11:10:57;40.30;;;19.08;;
57047;SDS011;42934;54.294;18.598;2023-03-13T11:13:28;35.75;;;19.23;;
57047;SDS011;42934;54.294;18.598;2023-03-13T11:16:15;38.13;;;17.42;;
57047;SDS011;42934;54.294;18.598;2023-03-13T11:18:51;39.20;;;19.92;;
57047;SDS011;42934;54.294;18.598;2023-03-13T11:21:34;45.30;;;19.90;;
57047;SDS011;42934;54.294;18.598;2023-03-13T11:24:09;40.88;;;21.08;;
57047;SDS011;42934;54.294;18.598;2023-03-13T11:26:45;48.05;;;22.27;;
57047;SDS011;42934;54.294;18.598;2023-03-13T11:29:33;36.03;;;20.45;;
57047;SDS011;42934;54.294;18.598;2023-03-13T11:32:15;38.50;;;19.92;;
57047;SDS011;42934;54.294;18.598;2023-03-13T11:34:50;39.63;;;20.67;;
57047;SDS011;42934;54.294;18.598;2023-03-13T11:37:23;41.28;;;22.63;;
57047;SDS011;42934;54.294;18.598;2023-03-13T11:39:58;41.13;;;20.83;;
57047;SDS011;42934;54.294;18.598;2023-03-13T11:42:47;39.65;;;19.52;;
57047;SDS011;42934;54.294;18.598;2023-03-13T11:45:55;45.97;;;21.73;;
57047;SDS011;42934;54.294;18.598;2023-03-13T11:48:49;39.75;;;20.27;;
57047;SDS011;42934;54.294;18.598;2023-03-13T11:51:30;41.95;;;19.67;;
57047;SDS011;42934;54.294;18.598;2023-03-13T11:54:27;40.10;;;20.98;;
57047;SDS011;42934;54.294;18.598;2023-03-13T11:57:07;34.85;;;19.38;;
57047;SDS011;42934;54.294;18.598;2023-03-13T11:59:44;31.25;;;19.17;;
57047;SDS011;42934;54.294;18.598;2023-03-13T12:02:38;33.55;;;17.63;;
57047;SDS011;42934;54.294;18.598;2023-03-13T12:05:12;31.15;;;18.73;;
57047;SDS011;42934;54.294;18.598;2023-03-13T12:07:46;32.40;;;17.63;;
57047;SDS011;42934;54.294;18.598;2023-03-13T12:10:24;32.78;;;19.48;;
57047;SDS011;42934;54.294;18.598;2023-03-13T12:12:58;38.20;;;19.65;;
57047;SDS011;42934;54.294;18.598;2023-03-13T12:15:35;34.03;;;17.40;;
57047;SDS011;42934;54.294;18.598;2023-03-13T12:18:08;38.53;;;20.05;;
57047;SDS011;42934;54.294;18.598;2023-03-13T12:20:48;33.40;;;18.23;;
57047;SDS011;42934;54.294;18.598;2023-03-13T12:23:27;40.83;;;19.15;;
57047;SDS011;42934;54.294;18.598;2023-03-13T12:26:03;30.73;;;18.88;;
57047;SDS011;42934;54.294;18.598;2023-03-13T12:28:38;32.90;;;17.77;;
57047;SDS011;42934;54.294;18.598;2023-03-13T12:31:16;36.95;;;18.73;;
57047;SDS011;42934;54.294;18.598;2023-03-13T12:33:51;28.77;;;17.35;;
57047;SDS011;42934;54.294;18.598;2023-03-13T12:36:26;31.60;;;18.50;;
57047;SDS011;42934;54.294;18.598;2023-03-13T12:39:05;28.58;;;15.73;;
57047;SDS011;42934;54.294;18.598;2023-03-13T12:41:47;30.02;;;18.13;;
57047;SDS011;42934;54.294;18.598;2023-03-13T12:44:24;29.90;;;17.17;;
57047;SDS011;42934;54.294;18.598;2023-03-13T12:46:57;31.40;;;16.88;;
57047;SDS011;42934;54.294;18.598;2023-03-13T12:49:44;27.23;;;14.68;;
57047;SDS011;42934;54.294;18.598;2023-03-13T12:52:39;34.72;;;17.75;;
57047;SDS011;42934;54.294;18.598;2023-03-13T12:58:37;28.75;;;15.85;;
57047;SDS011;42934;54.294;18.598;2023-03-13T13:01:15;27.40;;;15.63;;
57047;SDS011;42934;54.294;18.598;2023-03-13T13:03:55;31.60;;;17.75;;
57047;SDS011;42934;54.294;18.598;2023-03-13T13:06:27;32.97;;;18.98;;
57047;SDS011;42934;54.294;18.598;2023-03-13T13:11:48;32.90;;;15.57;;
57047;SDS011;42934;54.294;18.598;2023-03-13T13:17:27;35.53;;;18.33;;
57047;SDS011;42934;54.294;18.598;2023-03-13T13:20:39;35.33;;;17.05;;
57047;SDS011;42934;54.294;18.598;2023-03-13T13:32:31;36.47;;;15.48;;
57047;SDS011;42934;54.294;18.598;2023-03-13T13:35:25;36.72;;;17.98;;
57047;SDS011;42934;54.294;18.598;2023-03-13T13:41:06;28.77;;;15.73;;
57047;SDS011;42934;54.294;18.598;2023-03-13T13:44:14;30.58;;;15.43;;
57047;SDS011;42934;54.294;18.598;2023-03-13T13:46:55;26.48;;;15.05;;
57047;SDS011;42934;54.294;18.598;2023-03-13T13:49:31;27.33;;;14.60;;
57047;SDS011;42934;54.294;18.598;2023-03-13T13:58:16;22.55;;;12.93;;
57047;SDS011;42934;54.294;18.598;2023-03-13T14:00:51;19.02;;;12.15;;
57047;SDS011;42934;54.294;18.598;2023-03-13T14:03:23;21.60;;;12.35;;
57047;SDS011;42934;54.294;18.598;2023-03-13T14:05:55;22.25;;;12.25;;
57047;SDS011;42934;54.294;18.598;2023-03-13T14:08:28;23.98;;;11.57;;
57047;SDS011;42934;54.294;18.598;2023-03-13T14:11:06;23.42;;;11.88;;
57047;SDS011;42934;54.294;18.598;2023-03-13T14:16:37;20.70;;;10.63;;
57047;SDS011;42934;54.294;18.598;2023-03-13T14:19:20;21.42;;;10.48;;
57047;SDS011;42934;54.294;18.598;2023-03-13T14:21:59;21.92;;;10.85;;
57047;SDS011;42934;54.294;18.598;2023-03-13T14:24:29;15.40;;;9.07;;
57047;SDS011;42934;54.294;18.598;2023-03-13T14:26:59;18.48;;;9.90;;
57047;SDS011;42934;54.294;18.598;2023-03-13T14:29:30;13.25;;;8.65;;
57047;SDS011;42934;54.294;18.598;2023-03-13T14:32:01;13.27;;;7.97;;
57047;SDS011;42934;54.294;18.598;2023-03-13T14:34:31;15.32;;;7.93;;
57047;SDS011;42934;54.294;18.598;2023-03-13T14:37:01;12.20;;;7.40;;
57047;SDS011;42934;54.294;18.598;2023-03-13T14:39:51;11.75;;;6.10;;
57047;SDS011;42934;54.294;18.598;2023-03-13T14:42:20;12.03;;;6.87;;
57047;SDS011;42934;54.294;18.598;2023-03-13T14:44:53;12.38;;;7.40;;
57047;SDS011;42934;54.294;18.598;2023-03-13T14:47:26;10.40;;;6.05;;
57047;SDS011;42934;54.294;18.598;2023-03-13T14:49:57;11.07;;;5.90;;
57047;SDS011;42934;54.294;18.598;2023-03-13T14:52:28;14.05;;;6.50;;
57047;SDS011;42934;54.294;18.598;2023-03-13T14:55:00;8.90;;;6.20;;
57047;SDS011;42934;54.294;18.598;2023-03-13T14:57:34;9.52;;;6.78;;
57047;SDS011;42934;54.294;18.598;2023-03-13T15:03:11;8.63;;;5.20;;
57047;SDS011;42934;54.294;18.598;2023-03-13T15:06:01;11.35;;;6.57;;
57047;SDS011;42934;54.294;18.598;2023-03-13T15:08:33;7.95;;;4.90;;
57047;SDS011;42934;54.294;18.598;2023-03-13T15:11:15;7.68;;;5.07;;
57047;SDS011;42934;54.294;18.598;2023-03-13T15:13:52;7.97;;;5.28;;
57047;SDS011;42934;54.294;18.598;2023-03-13T15:16:24;6.50;;;4.90;;
57047;SDS011;42934;54.294;18.598;2023-03-13T15:18:59;11.30;;;5.00;;
57047;SDS011;42934;54.294;18.598;2023-03-13T15:21:28;7.20;;;4.63;;
57047;SDS011;42934;54.294;18.598;2023-03-13T15:24:00;9.02;;;5.22;;
57047;SDS011;42934;54.294;18.598;2023-03-13T15:26:37;6.28;;;4.38;;
57047;SDS011;42934;54.294;18.598;2023-03-13T15:29:09;6.95;;;4.68;;
57047;SDS011;42934;54.294;18.598;2023-03-13T15:31:39;5.67;;;4.13;;
57047;SDS011;42934;54.294;18.598;2023-03-13T15:34:11;7.15;;;4.65;;
57047;SDS011;42934;54.294;18.598;2023-03-13T15:36:42;7.13;;;4.40;;
57047;SDS011;42934;54.294;18.598;2023-03-13T15:39:13;6.40;;;4.75;;
57047;SDS011;42934;54.294;18.598;2023-03-13T15:41:45;7.60;;;4.40;;
57047;SDS011;42934;54.294;18.598;2023-03-13T15:44:17;6.85;;;4.50;;
57047;SDS011;42934;54.294;18.598;2023-03-13T15:46:48;5.88;;;4.18;;
57047;SDS011;42934;54.294;18.598;2023-03-13T15:49:21;6.32;;;4.15;;
57047;SDS011;42934;54.294;18.598;2023-03-13T15:51:52;8.23;;;4.65;;
57047;SDS011;42934;54.294;18.598;2023-03-13T15:54:23;7.57;;;4.47;;
57047;SDS011;42934;54.294;18.598;2023-03-13T15:56:53;7.07;;;4.97;;
57047;SDS011;42934;54.294;18.598;2023-03-13T15:59:22;8.23;;;5.00;;
57047;SDS011;42934;54.294;18.598;2023-03-13T16:01:53;7.70;;;4.50;;
57047;SDS011;42934;54.294;18.598;2023-03-13T16:04:22;7.07;;;4.30;;
57047;SDS011;42934;54.294;18.598;2023-03-13T16:06:51;5.13;;;3.50;;
57047;SDS011;42934;54.294;18.598;2023-03-13T16:09:21;5.60;;;4.03;;
57047;SDS011;42934;54.294;18.598;2023-03-13T16:11:50;5.22;;;3.97;;
57047;SDS011;42934;54.294;18.598;2023-03-13T16:14:19;5.50;;;4.13;;
57047;SDS011;42934;54.294;18.598;2023-03-13T16:16:48;6.65;;;3.90;;
57047;SDS011;42934;54.294;18.598;2023-03-13T16:19:20;6.95;;;4.18;;
57047;SDS011;42934;54.294;18.598;2023-03-13T16:21:49;6.18;;;4.30;;
57047;SDS011;42934;54.294;18.598;2023-03-13T16:24:18;5.00;;;4.30;;
57047;SDS011;42934;54.294;18.598;2023-03-13T16:26:47;6.65;;;4.57;;
57047;SDS011;42934;54.294;18.598;2023-03-13T16:29:17;8.32;;;4.82;;
57047;SDS011;42934;54.294;18.598;2023-03-13T16:31:46;8.02;;;5.00;;
57047;SDS011;42934;54.294;18.598;2023-03-13T16:34:15;7.40;;;4.77;;
57047;SDS011;42934;54.294;18.598;2023-03-13T16:36:46;6.63;;;4.87;;
57047;SDS011;42934;54.294;18.598;2023-03-13T16:39:15;8.02;;;5.40;;
57047;SDS011;42934;54.294;18.598;2023-03-13T16:41:45;7.45;;;5.43;;
57047;SDS011;42934;54.294;18.598;2023-03-13T16:44:15;6.63;;;5.18;;
57047;SDS011;42934;54.294;18.598;2023-03-13T16:46:44;5.88;;;5.05;;
57047;SDS011;42934;54.294;18.598;2023-03-13T16:49:32;9.85;;;7.28;;
57047;SDS011;42934;54.294;18.598;2023-03-13T16:52:02;13.27;;;9.30;;
57047;SDS011;42934;54.294;18.598;2023-03-13T16:54:32;7.38;;;5.10;;
57047;SDS011;42934;54.294;18.598;2023-03-13T16:57:01;7.82;;;5.55;;
57047;SDS011;42934;54.294;18.598;2023-03-13T16:59:30;7.85;;;5.80;;
57047;SDS011;42934;54.294;18.598;2023-03-13T17:01:59;7.05;;;5.75;;
57047;SDS011;42934;54.294;18.598;2023-03-13T17:04:29;7.47;;;6.10;;
57047;SDS011;42934;54.294;18.598;2023-03-13T17:06:59;9.13;;;6.15;;
57047;SDS011;42934;54.294;18.598;2023-03-13T17:09:31;8.60;;;6.05;;
57047;SDS011;42934;54.294;18.598;2023-03-13T17:12:00;8.13;;;6.43;;
57047;SDS011;42934;54.294;18.598;2023-03-13T17:14:30;9.38;;;6.40;;
57047;SDS011;42934;54.294;18.598;2023-03-13T17:17:00;9.98;;;7.22;;
57047;SDS011;42934;54.294;18.598;2023-03-13T17:19:31;9.60;;;7.25;;
57047;SDS011;42934;54.294;18.598;2023-03-13T17:22:00;9.88;;;7.57;;
57047;SDS011;42934;54.294;18.598;2023-03-13T17:24:31;10.85;;;8.52;;
57047;SDS011;42934;54.294;18.598;2023-03-13T17:27:00;10.68;;;8.10;;
57047;SDS011;42934;54.294;18.598;2023-03-13T17:29:30;11.93;;;8.90;;
57047;SDS011;42934;54.294;18.598;2023-03-13T17:31:59;14.05;;;9.68;;
57047;SDS011;42934;54.294;18.598;2023-03-13T17:34:30;12.98;;;9.93;;
57047;SDS011;42934;54.294;18.598;2023-03-13T17:36:59;12.38;;;9.38;;
57047;SDS011;42934;54.294;18.598;2023-03-13T17:39:32;13.13;;;9.98;;
57047;SDS011;42934;54.294;18.598;2023-03-13T17:42:01;13.10;;;9.45;;
57047;SDS011;42934;54.294;18.598;2023-03-13T17:44:32;15.00;;;9.65;;
57047;SDS011;42934;54.294;18.598;2023-03-13T17:47:01;14.00;;;9.73;;
57047;SDS011;42934;54.294;18.598;2023-03-13T17:49:30;14.60;;;11.02;;
57047;SDS011;42934;54.294;18.598;2023-03-13T17:51:59;15.23;;;10.18;;
57047;SDS011;42934;54.294;18.598;2023-03-13T17:54:29;12.40;;;10.20;;
57047;SDS011;42934;54.294;18.598;2023-03-13T17:56:59;15.45;;;11.15;;
57047;SDS011;42934;54.294;18.598;2023-03-13T17:59:29;16.60;;;10.60;;
57047;SDS011;42934;54.294;18.598;2023-03-13T18:01:58;15.10;;;10.90;;
57047;SDS011;42934;54.294;18.598;2023-03-13T18:04:27;15.35;;;10.50;;
57047;SDS011;42934;54.294;18.598;2023-03-13T18:06:56;13.93;;;10.23;;
57047;SDS011;42934;54.294;18.598;2023-03-13T18:09:26;20.90;;;11.43;;
57047;SDS011;42934;54.294;18.598;2023-03-13T18:11:55;14.00;;;10.52;;
57047;SDS011;42934;54.294;18.598;2023-03-13T18:14:26;14.50;;;10.70;;
57047;SDS011;42934;54.294;18.598;2023-03-13T18:16:55;16.73;;;10.70;;
57047;SDS011;42934;54.294;18.598;2023-03-13T18:19:25;14.90;;;10.40;;
57047;SDS011;42934;54.294;18.598;2023-03-13T18:21:54;11.23;;;9.67;;
57047;SDS011;42934;54.294;18.598;2023-03-13T18:24:24;17.42;;;10.27;;
57047;SDS011;42934;54.294;18.598;2023-03-13T18:26:53;12.02;;;9.55;;
57047;SDS011;42934;54.294;18.598;2023-03-13T18:29:23;13.40;;;9.50;;
57047;SDS011;42934;54.294;18.598;2023-03-13T18:34:25;11.93;;;9.25;;
57047;SDS011;42934;54.294;18.598;2023-03-13T18:39:30;14.75;;;9.23;;
57047;SDS011;42934;54.294;18.598;2023-03-13T18:42:00;12.93;;;9.13;;
57047;SDS011;42934;54.294;18.598;2023-03-13T18:44:29;15.30;;;9.80;;
57047;SDS011;42934;54.294;18.598;2023-03-13T18:46:59;14.18;;;9.18;;
57047;SDS011;42934;54.294;18.598;2023-03-13T18:49:29;16.48;;;10.05;;
57047;SDS011;42934;54.294;18.598;2023-03-13T18:51:58;14.85;;;9.95;;
57047;SDS011;42934;54.294;18.598;2023-03-13T18:54:28;12.57;;;10.32;;
57047;SDS011;42934;54.294;18.598;2023-03-13T18:56:57;12.75;;;9.90;;
57047;SDS011;42934;54.294;18.598;2023-03-13T18:59:27;13.65;;;9.98;;
57047;SDS011;42934;54.294;18.598;2023-03-13T19:01:56;15.27;;;11.18;;
57047;SDS011;42934;54.294;18.598;2023-03-13T19:04:27;15.30;;;10.10;;
57047;SDS011;42934;54.294;18.598;2023-03-13T19:06:56;16.23;;;11.07;;
57047;SDS011;42934;54.294;18.598;2023-03-13T19:09:26;18.83;;;10.68;;
57047;SDS011;42934;54.294;18.598;2023-03-13T19:12:09;18.63;;;11.73;;
57047;SDS011;42934;54.294;18.598;2023-03-13T19:14:38;17.90;;;12.05;;
57047;SDS011;42934;54.294;18.598;2023-03-13T19:17:10;16.35;;;11.02;;
57047;SDS011;42934;54.294;18.598;2023-03-13T19:19:46;18.55;;;12.48;;
57047;SDS011;42934;54.294;18.598;2023-03-13T19:22:15;14.63;;;11.15;;
57047;SDS011;42934;54.294;18.598;2023-03-13T19:24:45;15.15;;;11.23;;
57047;SDS011;42934;54.294;18.598;2023-03-13T19:27:14;16.35;;;11.73;;
57047;SDS011;42934;54.294;18.598;2023-03-13T19:29:44;16.58;;;11.18;;
57047;SDS011;42934;54.294;18.598;2023-03-13T19:32:13;17.05;;;11.32;;
57047;SDS011;42934;54.294;18.598;2023-03-13T19:34:44;17.65;;;10.45;;
57047;SDS011;42934;54.294;18.598;2023-03-13T19:37:15;17.40;;;11.50;;
57047;SDS011;42934;54.294;18.598;2023-03-13T19:39:45;15.77;;;11.73;;
57047;SDS011;42934;54.294;18.598;2023-03-13T19:42:14;14.90;;;10.57;;
57047;SDS011;42934;54.294;18.598;2023-03-13T19:44:44;13.03;;;10.77;;
57047;SDS011;42934;54.294;18.598;2023-03-13T19:47:13;16.95;;;11.27;;
57047;SDS011;42934;54.294;18.598;2023-03-13T19:49:43;16.58;;;11.80;;
57047;SDS011;42934;54.294;18.598;2023-03-13T19:52:16;15.57;;;10.43;;
57047;SDS011;42934;54.294;18.598;2023-03-13T19:54:46;17.73;;;11.02;;
57047;SDS011;42934;54.294;18.598;2023-03-13T19:57:15;18.48;;;11.95;;
57047;SDS011;42934;54.294;18.598;2023-03-13T19:59:44;15.57;;;11.23;;
57047;SDS011;42934;54.294;18.598;2023-03-13T20:02:13;18.27;;;12.45;;
57047;SDS011;42934;54.294;18.598;2023-03-13T20:04:43;17.08;;;11.90;;
57047;SDS011;42934;54.294;18.598;2023-03-13T20:07:12;16.38;;;11.70;;
57047;SDS011;42934;54.294;18.598;2023-03-13T20:09:43;17.63;;;12.07;;
57047;SDS011;42934;54.294;18.598;2023-03-13T20:12:12;14.10;;;11.50;;
57047;SDS011;42934;54.294;18.598;2023-03-13T20:14:41;17.47;;;11.27;;
57047;SDS011;42934;54.294;18.598;2023-03-13T20:17:11;18.17;;;11.10;;
57047;SDS011;42934;54.294;18.598;2023-03-13T20:19:42;14.73;;;10.93;;
57047;SDS011;42934;54.294;18.598;2023-03-13T20:22:12;16.73;;;10.65;;
57047;SDS011;42934;54.294;18.598;2023-03-13T20:24:43;15.07;;;10.65;;
57047;SDS011;42934;54.294;18.598;2023-03-13T20:27:12;14.25;;;10.25;;
57047;SDS011;42934;54.294;18.598;2023-03-13T20:29:42;13.80;;;10.47;;
57047;SDS011;42934;54.294;18.598;2023-03-13T20:32:11;15.00;;;10.40;;
57047;SDS011;42934;54.294;18.598;2023-03-13T20:34:40;18.00;;;10.30;;
57047;SDS011;42934;54.294;18.598;2023-03-13T20:37:09;13.05;;;10.13;;
57047;SDS011;42934;54.294;18.598;2023-03-13T20:39:39;18.83;;;9.93;;
57047;SDS011;42934;54.294;18.598;2023-03-13T20:42:10;13.27;;;9.75;;
57047;SDS011;42934;54.294;18.598;2023-03-13T20:44:40;12.57;;;9.70;;
57047;SDS011;42934;54.294;18.598;2023-03-13T20:47:09;13.98;;;9.90;;
57047;SDS011;42934;54.294;18.598;2023-03-13T20:49:38;13.30;;;9.40;;
57047;SDS011;42934;54.294;18.598;2023-03-13T20:52:07;15.10;;;9.90;;
57047;SDS011;42934;54.294;18.598;2023-03-13T20:54:37;12.47;;;9.73;;
57047;SDS011;42934;54.294;18.598;2023-03-13T20:57:06;13.88;;;9.98;;
57047;SDS011;42934;54.294;18.598;2023-03-13T20:59:37;12.50;;;9.90;;
57047;SDS011;42934;54.294;18.598;2023-03-13T21:02:06;12.55;;;9.38;;
57047;SDS011;42934;54.294;18.598;2023-03-13T21:04:37;13.30;;;9.05;;
57047;SDS011;42934;54.294;18.598;2023-03-13T21:07:06;12.68;;;9.43;;
57047;SDS011;42934;54.294;18.598;2023-03-13T21:09:37;15.45;;;9.38;;
57047;SDS011;42934;54.294;18.598;2023-03-13T21:12:06;14.77;;;9.43;;
57047;SDS011;42934;54.294;18.598;2023-03-13T21:17:06;14.77;;;9.15;;
57047;SDS011;42934;54.294;18.598;2023-03-13T21:19:38;11.45;;;8.27;;
57047;SDS011;42934;54.294;18.598;2023-03-13T21:22:09;14.15;;;9.25;;
57047;SDS011;42934;54.294;18.598;2023-03-13T21:24:38;12.90;;;8.82;;
57047;SDS011;42934;54.294;18.598;2023-03-13T21:27:08;13.30;;;8.30;;
57047;SDS011;42934;54.294;18.598;2023-03-13T21:29:38;14.20;;;8.60;;
57047;SDS011;42934;54.294;18.598;2023-03-13T21:32:09;12.55;;;8.13;;
57047;SDS011;42934;54.294;18.598;2023-03-13T21:34:39;11.32;;;7.72;;
57047;SDS011;42934;54.294;18.598;2023-03-13T21:37:09;11.50;;;7.85;;
57047;SDS011;42934;54.294;18.598;2023-03-13T21:39:39;10.38;;;7.93;;
57047;SDS011;42934;54.294;18.598;2023-03-13T21:42:09;11.15;;;7.90;;
57047;SDS011;42934;54.294;18.598;2023-03-13T21:44:41;15.98;;;8.65;;
57047;SDS011;42934;54.294;18.598;2023-03-13T21:47:11;13.15;;;7.80;;
57047;SDS011;42934;54.294;18.598;2023-03-13T21:49:40;12.95;;;7.80;;
57047;SDS011;42934;54.294;18.598;2023-03-13T21:52:09;12.18;;;7.88;;
57047;SDS011;42934;54.294;18.598;2023-03-13T21:54:38;12.13;;;7.90;;
57047;SDS011;42934;54.294;18.598;2023-03-13T21:57:08;11.55;;;7.50;;
57047;SDS011;42934;54.294;18.598;2023-03-13T21:59:37;12.47;;;7.60;;
57047;SDS011;42934;54.294;18.598;2023-03-13T22:02:10;13.70;;;8.07;;
57047;SDS011;42934;54.294;18.598;2023-03-13T22:04:40;12.52;;;8.13;;
57047;SDS011;42934;54.294;18.598;2023-03-13T22:07:09;13.65;;;7.93;;
57047;SDS011;42934;54.294;18.598;2023-03-13T22:09:39;11.30;;;7.67;;
57047;SDS011;42934;54.294;18.598;2023-03-13T22:12:08;12.77;;;7.45;;
57047;SDS011;42934;54.294;18.598;2023-03-13T22:14:37;14.27;;;8.38;;
57047;SDS011;42934;54.294;18.598;2023-03-13T22:17:06;11.15;;;7.30;;
57047;SDS011;42934;54.294;18.598;2023-03-13T22:19:44;10.38;;;7.13;;
57047;SDS011;42934;54.294;18.598;2023-03-13T22:22:13;14.55;;;7.70;;
57047;SDS011;42934;54.294;18.598;2023-03-13T22:24:42;13.00;;;7.93;;
57047;SDS011;42934;54.294;18.598;2023-03-13T22:27:12;13.07;;;7.13;;
57047;SDS011;42934;54.294;18.598;2023-03-13T22:29:41;12.45;;;7.55;;
57047;SDS011;42934;54.294;18.598;2023-03-13T22:32:10;13.45;;;7.70;;
57047;SDS011;42934;54.294;18.598;2023-03-13T22:34:40;12.40;;;7.47;;
57047;SDS011;42934;54.294;18.598;2023-03-13T22:37:13;10.98;;;7.45;;
57047;SDS011;42934;54.294;18.598;2023-03-13T22:39:42;11.45;;;7.55;;
57047;SDS011;42934;54.294;18.598;2023-03-13T22:42:11;13.30;;;7.68;;
57047;SDS011;42934;54.294;18.598;2023-03-13T22:44:41;10.33;;;6.90;;
57047;SDS011;42934;54.294;18.598;2023-03-13T22:47:10;12.77;;;7.60;;
57047;SDS011;42934;54.294;18.598;2023-03-13T22:49:39;12.13;;;7.70;;
57047;SDS011;42934;54.294;18.598;2023-03-13T22:52:08;10.93;;;7.30;;
57047;SDS011;42934;54.294;18.598;2023-03-13T22:54:39;10.50;;;7.70;;
57047;SDS011;42934;54.294;18.598;2023-03-13T22:57:08;10.50;;;7.13;;
57047;SDS011;42934;54.294;18.598;2023-03-13T22:59:38;13.10;;;7.90;;
57047;SDS011;42934;54.294;18.598;2023-03-13T23:02:07;10.90;;;7.93;;
57047;SDS011;42934;54.294;18.598;2023-03-13T23:04:36;12.47;;;7.50;;
57047;SDS011;42934;54.294;18.598;2023-03-13T23:07:05;14.15;;;7.80;;
57047;SDS011;42934;54.294;18.598;2023-03-13T23:09:34;11.27;;;7.30;;
57047;SDS011;42934;54.294;18.598;2023-03-13T23:12:05;10.30;;;7.05;;
57047;SDS011;42934;54.294;18.598;2023-03-13T23:14:34;9.50;;;7.25;;
57047;SDS011;42934;54.294;18.598;2023-03-13T23:17:04;10.63;;;8.20;;
57047;SDS011;42934;54.294;18.598;2023-03-13T23:19:33;13.20;;;8.20;;
57047;SDS011;42934;54.294;18.598;2023-03-13T23:22:03;12.00;;;8.00;;
57047;SDS011;42934;54.294;18.598;2023-03-13T23:24:32;12.03;;;8.17;;
57047;SDS011;42934;54.294;18.598;2023-03-13T23:27:01;11.10;;;7.55;;
57047;SDS011;42934;54.294;18.598;2023-03-13T23:29:32;13.43;;;8.07;;
57047;SDS011;42934;54.294;18.598;2023-03-13T23:32:01;12.43;;;7.85;;
57047;SDS011;42934;54.294;18.598;2023-03-13T23:34:30;14.20;;;7.80;;
57047;SDS011;42934;54.294;18.598;2023-03-13T23:37:01;11.77;;;7.78;;
57047;SDS011;42934;54.294;18.598;2023-03-13T23:39:31;11.15;;;7.80;;
57047;SDS011;42934;54.294;18.598;2023-03-13T23:42:00;12.35;;;8.13;;
57047;SDS011;42934;54.294;18.598;2023-03-13T23:44:29;10.20;;;7.50;;
57047;SDS011;42934;54.294;18.598;2023-03-13T23:46:59;11.15;;;7.95;;
57047;SDS011;42934;54.294;18.598;2023-03-13T23:49:29;11.65;;;7.40;;
57047;SDS011;42934;54.294;18.598;2023-03-13T23:51:58;14.27;;;8.07;;
57047;SDS011;42934;54.294;18.598;2023-03-13T23:54:27;16.73;;;8.03;;
57047;SDS011;42934;54.294;18.598;2023-03-13T23:56:56;11.90;;;7.95;;
57047;SDS011;42934;54.294;18.598;2023-03-13T23:59:26;11.65;;;7.47;;
